sensor_id;sensor_type;location;lat;lon;timestamp;temperature;humidity
70074;DHT22;57445;51.058;3.698;2022-11-03T00:01:38;14.70;90.10
70074;DHT22;57445;51.058;3.698;2022-11-03T00:04:08;14.70;90.20
70074;DHT22;57445;51.058;3.698;2022-11-03T00:06:36;14.50;90.60
70074;DHT22;57445;51.058;3.698;2022-11-03T00:09:10;14.60;90.50
70074;DHT22;57445;51.058;3.698;2022-11-03T00:11:39;14.70;90.30
70074;DHT22;57445;51.058;3.698;2022-11-03T00:14:12;14.40;90.40
70074;DHT22;57445;51.058;3.698;2022-11-03T00:16:42;14.50;90.60
70074;DHT22;57445;51.058;3.698;2022-11-03T00:19:10;14.50;90.70
70074;DHT22;57445;51.058;3.698;2022-11-03T00:21:43;14.50;90.70
70074;DHT22;57445;51.058;3.698;2022-11-03T00:24:16;14.20;91.20
70074;DHT22;57445;51.058;3.698;2022-11-03T00:26:43;14.10;91.30
70074;DHT22;57445;51.058;3.698;2022-11-03T00:29:12;14.00;92.00
70074;DHT22;57445;51.058;3.698;2022-11-03T00:31:46;13.80;92.30
70074;DHT22;57445;51.058;3.698;2022-11-03T00:34:14;13.70;92.40
70074;DHT22;57445;51.058;3.698;2022-11-03T00:36:46;13.70;92.60
70074;DHT22;57445;51.058;3.698;2022-11-03T00:39:13;13.80;92.70
70074;DHT22;57445;51.058;3.698;2022-11-03T00:41:41;13.70;92.60
70074;DHT22;57445;51.058;3.698;2022-11-03T00:44:09;13.90;92.30
70074;DHT22;57445;51.058;3.698;2022-11-03T00:46:43;13.70;92.50
70074;DHT22;57445;51.058;3.698;2022-11-03T00:49:12;13.90;92.30
70074;DHT22;57445;51.058;3.698;2022-11-03T00:51:44;14.00;92.30
70074;DHT22;57445;51.058;3.698;2022-11-03T00:54:11;13.90;92.50
70074;DHT22;57445;51.058;3.698;2022-11-03T00:56:44;14.00;92.30
70074;DHT22;57445;51.058;3.698;2022-11-03T00:59:11;13.90;92.40
70074;DHT22;57445;51.058;3.698;2022-11-03T01:01:44;14.30;92.60
70074;DHT22;57445;51.058;3.698;2022-11-03T01:04:13;13.70;92.90
70074;DHT22;57445;51.058;3.698;2022-11-03T01:06:59;13.50;93.30
70074;DHT22;57445;51.058;3.698;2022-11-03T01:09:29;13.50;93.40
70074;DHT22;57445;51.058;3.698;2022-11-03T01:11:58;13.40;93.60
70074;DHT22;57445;51.058;3.698;2022-11-03T01:14:28;13.50;93.40
70074;DHT22;57445;51.058;3.698;2022-11-03T01:17:03;13.80;93.00
70074;DHT22;57445;51.058;3.698;2022-11-03T01:19:37;13.90;92.60
70074;DHT22;57445;51.058;3.698;2022-11-03T01:22:10;13.80;93.20
70074;DHT22;57445;51.058;3.698;2022-11-03T01:24:43;13.70;93.10
70074;DHT22;57445;51.058;3.698;2022-11-03T01:27:13;13.90;92.70
70074;DHT22;57445;51.058;3.698;2022-11-03T01:29:45;13.70;92.90
70074;DHT22;57445;51.058;3.698;2022-11-03T01:32:13;13.90;92.80
70074;DHT22;57445;51.058;3.698;2022-11-03T01:34:42;14.10;92.50
70074;DHT22;57445;51.058;3.698;2022-11-03T01:37:10;14.00;92.70
70074;DHT22;57445;51.058;3.698;2022-11-03T01:39:42;13.80;92.90
70074;DHT22;57445;51.058;3.698;2022-11-03T01:42:11;13.90;92.70
70074;DHT22;57445;51.058;3.698;2022-11-03T01:44:42;14.20;92.40
70074;DHT22;57445;51.058;3.698;2022-11-03T01:47:18;14.10;92.30
70074;DHT22;57445;51.058;3.698;2022-11-03T01:49:53;14.30;92.10
70074;DHT22;57445;51.058;3.698;2022-11-03T01:52:26;14.10;92.40
70074;DHT22;57445;51.058;3.698;2022-11-03T01:54:57;14.00;92.60
70074;DHT22;57445;51.058;3.698;2022-11-03T01:57:32;13.90;92.80
70074;DHT22;57445;51.058;3.698;2022-11-03T02:00:06;14.00;92.70
70074;DHT22;57445;51.058;3.698;2022-11-03T02:02:34;14.30;92.30
70074;DHT22;57445;51.058;3.698;2022-11-03T02:05:05;14.30;92.10
70074;DHT22;57445;51.058;3.698;2022-11-03T02:07:36;14.50;92.00
70074;DHT22;57445;51.058;3.698;2022-11-03T02:10:09;14.20;92.30
70074;DHT22;57445;51.058;3.698;2022-11-03T02:12:42;13.90;92.80
70074;DHT22;57445;51.058;3.698;2022-11-03T02:15:18;13.90;93.10
70074;DHT22;57445;51.058;3.698;2022-11-03T02:17:53;14.10;92.80
70074;DHT22;57445;51.058;3.698;2022-11-03T02:20:24;14.10;92.80
70074;DHT22;57445;51.058;3.698;2022-11-03T02:23:01;14.20;92.70
70074;DHT22;57445;51.058;3.698;2022-11-03T02:25:41;14.20;92.60
70074;DHT22;57445;51.058;3.698;2022-11-03T02:28:10;14.30;92.60
70074;DHT22;57445;51.058;3.698;2022-11-03T02:30:42;14.10;92.70
70074;DHT22;57445;51.058;3.698;2022-11-03T02:33:28;14.40;92.90
70074;DHT22;57445;51.058;3.698;2022-11-03T02:36:05;14.20;92.80
70074;DHT22;57445;51.058;3.698;2022-11-03T02:38:44;14.40;92.50
70074;DHT22;57445;51.058;3.698;2022-11-03T02:41:15;14.20;93.10
70074;DHT22;57445;51.058;3.698;2022-11-03T02:43:44;14.20;92.90
70074;DHT22;57445;51.058;3.698;2022-11-03T02:46:14;14.40;92.80
70074;DHT22;57445;51.058;3.698;2022-11-03T02:48:42;14.30;92.90
70074;DHT22;57445;51.058;3.698;2022-11-03T02:51:15;14.20;93.30
70074;DHT22;57445;51.058;3.698;2022-11-03T02:53:48;14.20;93.10
70074;DHT22;57445;51.058;3.698;2022-11-03T02:56:22;14.10;93.40
70074;DHT22;57445;51.058;3.698;2022-11-03T02:58:54;14.20;93.10
70074;DHT22;57445;51.058;3.698;2022-11-03T03:01:33;14.30;93.00
70074;DHT22;57445;51.058;3.698;2022-11-03T03:04:05;14.00;93.90
70074;DHT22;57445;51.058;3.698;2022-11-03T03:06:38;14.00;93.80
70074;DHT22;57445;51.058;3.698;2022-11-03T03:09:20;14.10;93.50
70074;DHT22;57445;51.058;3.698;2022-11-03T03:11:51;14.10;93.40
70074;DHT22;57445;51.058;3.698;2022-11-03T03:14:23;14.10;93.40
70074;DHT22;57445;51.058;3.698;2022-11-03T03:16:57;14.20;93.40
70074;DHT22;57445;51.058;3.698;2022-11-03T03:19:35;14.30;93.20
70074;DHT22;57445;51.058;3.698;2022-11-03T03:22:13;14.10;93.60
70074;DHT22;57445;51.058;3.698;2022-11-03T03:24:51;14.10;93.70
70074;DHT22;57445;51.058;3.698;2022-11-03T03:27:27;14.30;93.40
70074;DHT22;57445;51.058;3.698;2022-11-03T03:30:03;14.20;93.50
70074;DHT22;57445;51.058;3.698;2022-11-03T03:32:35;13.90;94.20
70074;DHT22;57445;51.058;3.698;2022-11-03T03:35:11;14.10;94.00
70074;DHT22;57445;51.058;3.698;2022-11-03T03:37:45;14.10;94.00
70074;DHT22;57445;51.058;3.698;2022-11-03T03:40:15;14.30;93.70
70074;DHT22;57445;51.058;3.698;2022-11-03T03:42:47;14.20;94.00
70074;DHT22;57445;51.058;3.698;2022-11-03T03:45:17;14.00;94.30
70074;DHT22;57445;51.058;3.698;2022-11-03T03:47:45;14.00;94.60
70074;DHT22;57445;51.058;3.698;2022-11-03T03:50:18;13.90;94.70
70074;DHT22;57445;51.058;3.698;2022-11-03T03:52:54;13.90;94.60
70074;DHT22;57445;51.058;3.698;2022-11-03T03:55:33;14.30;94.10
70074;DHT22;57445;51.058;3.698;2022-11-03T03:58:09;14.00;94.50
70074;DHT22;57445;51.058;3.698;2022-11-03T04:00:38;14.10;94.50
70074;DHT22;57445;51.058;3.698;2022-11-03T04:03:14;14.30;94.00
70074;DHT22;57445;51.058;3.698;2022-11-03T04:05:43;14.60;93.50
70074;DHT22;57445;51.058;3.698;2022-11-03T04:08:16;14.30;93.90
70074;DHT22;57445;51.058;3.698;2022-11-03T04:10:48;14.30;94.00
70074;DHT22;57445;51.058;3.698;2022-11-03T04:13:31;14.30;94.20
70074;DHT22;57445;51.058;3.698;2022-11-03T04:16:17;14.20;94.20
70074;DHT22;57445;51.058;3.698;2022-11-03T04:19:11;14.10;94.40
70074;DHT22;57445;51.058;3.698;2022-11-03T04:21:56;14.30;94.00
70074;DHT22;57445;51.058;3.698;2022-11-03T04:24:48;14.50;93.90
70074;DHT22;57445;51.058;3.698;2022-11-03T04:27:27;14.50;93.80
70074;DHT22;57445;51.058;3.698;2022-11-03T04:30:11;14.50;93.80
70074;DHT22;57445;51.058;3.698;2022-11-03T04:32:46;14.50;93.80
70074;DHT22;57445;51.058;3.698;2022-11-03T04:35:16;14.50;93.80
70074;DHT22;57445;51.058;3.698;2022-11-03T04:37:52;14.50;93.80
70074;DHT22;57445;51.058;3.698;2022-11-03T04:40:26;14.40;94.00
70074;DHT22;57445;51.058;3.698;2022-11-03T04:42:54;14.40;94.00
70074;DHT22;57445;51.058;3.698;2022-11-03T04:45:29;14.40;94.10
70074;DHT22;57445;51.058;3.698;2022-11-03T04:48:09;14.30;94.20
70074;DHT22;57445;51.058;3.698;2022-11-03T04:50:39;14.40;93.90
70074;DHT22;57445;51.058;3.698;2022-11-03T04:53:10;14.40;93.90
70074;DHT22;57445;51.058;3.698;2022-11-03T04:55:39;14.50;94.00
70074;DHT22;57445;51.058;3.698;2022-11-03T04:58:13;14.50;93.90
70074;DHT22;57445;51.058;3.698;2022-11-03T05:00:51;14.40;94.00
70074;DHT22;57445;51.058;3.698;2022-11-03T05:03:22;14.70;93.50
70074;DHT22;57445;51.058;3.698;2022-11-03T05:05:55;14.70;93.40
70074;DHT22;57445;51.058;3.698;2022-11-03T05:08:23;14.60;93.80
70074;DHT22;57445;51.058;3.698;2022-11-03T05:10:51;14.70;93.50
70074;DHT22;57445;51.058;3.698;2022-11-03T05:13:21;14.70;93.50
70074;DHT22;57445;51.058;3.698;2022-11-03T05:15:55;14.50;93.80
70074;DHT22;57445;51.058;3.698;2022-11-03T05:18:32;14.50;93.90
70074;DHT22;57445;51.058;3.698;2022-11-03T05:21:03;14.70;93.60
70074;DHT22;57445;51.058;3.698;2022-11-03T05:23:39;14.70;93.50
70074;DHT22;57445;51.058;3.698;2022-11-03T05:26:15;14.80;93.20
70074;DHT22;57445;51.058;3.698;2022-11-03T05:28:51;14.90;92.90
70074;DHT22;57445;51.058;3.698;2022-11-03T05:31:28;14.90;92.90
70074;DHT22;57445;51.058;3.698;2022-11-03T05:34:05;15.00;92.80
70074;DHT22;57445;51.058;3.698;2022-11-03T05:36:43;14.80;93.20
70074;DHT22;57445;51.058;3.698;2022-11-03T05:39:28;14.80;93.20
70074;DHT22;57445;51.058;3.698;2022-11-03T05:41:57;14.80;93.30
70074;DHT22;57445;51.058;3.698;2022-11-03T05:44:31;14.80;93.30
70074;DHT22;57445;51.058;3.698;2022-11-03T05:47:11;14.80;93.10
70074;DHT22;57445;51.058;3.698;2022-11-03T05:49:45;14.80;93.10
70074;DHT22;57445;51.058;3.698;2022-11-03T05:52:17;14.70;93.40
70074;DHT22;57445;51.058;3.698;2022-11-03T05:54:46;14.50;93.80
70074;DHT22;57445;51.058;3.698;2022-11-03T05:57:14;14.40;94.00
70074;DHT22;57445;51.058;3.698;2022-11-03T05:59:43;14.50;94.00
70074;DHT22;57445;51.058;3.698;2022-11-03T06:02:27;14.60;93.80
70074;DHT22;57445;51.058;3.698;2022-11-03T06:05:08;14.70;94.10
70074;DHT22;57445;51.058;3.698;2022-11-03T06:07:37;14.50;94.00
70074;DHT22;57445;51.058;3.698;2022-11-03T06:10:19;14.70;93.90
70074;DHT22;57445;51.058;3.698;2022-11-03T06:12:48;14.70;93.80
70074;DHT22;57445;51.058;3.698;2022-11-03T06:15:26;14.70;93.90
70074;DHT22;57445;51.058;3.698;2022-11-03T06:17:56;14.70;94.10
70074;DHT22;57445;51.058;3.698;2022-11-03T06:20:26;14.70;94.10
70074;DHT22;57445;51.058;3.698;2022-11-03T06:22:55;14.80;93.70
70074;DHT22;57445;51.058;3.698;2022-11-03T06:25:27;15.10;93.40
70074;DHT22;57445;51.058;3.698;2022-11-03T06:28:00;15.10;93.40
70074;DHT22;57445;51.058;3.698;2022-11-03T06:30:34;15.30;93.10
70074;DHT22;57445;51.058;3.698;2022-11-03T06:33:12;14.90;93.80
70074;DHT22;57445;51.058;3.698;2022-11-03T06:35:41;14.70;94.20
70074;DHT22;57445;51.058;3.698;2022-11-03T06:38:15;14.80;94.00
70074;DHT22;57445;51.058;3.698;2022-11-03T06:40:44;14.90;93.80
70074;DHT22;57445;51.058;3.698;2022-11-03T06:43:23;14.70;94.20
70074;DHT22;57445;51.058;3.698;2022-11-03T06:45:56;14.60;94.30
70074;DHT22;57445;51.058;3.698;2022-11-03T06:48:27;14.80;93.80
70074;DHT22;57445;51.058;3.698;2022-11-03T06:51:00;14.90;93.80
70074;DHT22;57445;51.058;3.698;2022-11-03T06:53:30;14.90;93.80
70074;DHT22;57445;51.058;3.698;2022-11-03T06:55:58;15.10;93.20
70074;DHT22;57445;51.058;3.698;2022-11-03T06:58:33;15.30;92.90
70074;DHT22;57445;51.058;3.698;2022-11-03T07:01:13;15.40;92.70
70074;DHT22;57445;51.058;3.698;2022-11-03T07:03:43;15.40;92.70
70074;DHT22;57445;51.058;3.698;2022-11-03T07:06:14;15.40;92.50
70074;DHT22;57445;51.058;3.698;2022-11-03T07:08:46;15.20;92.90
70074;DHT22;57445;51.058;3.698;2022-11-03T07:11:22;15.00;93.20
70074;DHT22;57445;51.058;3.698;2022-11-03T07:13:52;14.90;93.60
70074;DHT22;57445;51.058;3.698;2022-11-03T07:16:26;14.80;93.60
70074;DHT22;57445;51.058;3.698;2022-11-03T07:18:58;15.00;93.20
70074;DHT22;57445;51.058;3.698;2022-11-03T07:21:32;15.10;93.10
70074;DHT22;57445;51.058;3.698;2022-11-03T07:24:14;15.30;92.70
70074;DHT22;57445;51.058;3.698;2022-11-03T07:26:48;15.30;92.70
70074;DHT22;57445;51.058;3.698;2022-11-03T07:29:23;15.30;92.60
70074;DHT22;57445;51.058;3.698;2022-11-03T07:31:53;15.30;92.70
70074;DHT22;57445;51.058;3.698;2022-11-03T07:34:26;15.20;92.80
70074;DHT22;57445;51.058;3.698;2022-11-03T07:36:56;15.30;92.80
70074;DHT22;57445;51.058;3.698;2022-11-03T07:39:36;15.30;92.70
70074;DHT22;57445;51.058;3.698;2022-11-03T07:42:12;15.50;92.20
70074;DHT22;57445;51.058;3.698;2022-11-03T07:44:46;15.70;92.30
70074;DHT22;57445;51.058;3.698;2022-11-03T07:47:18;15.60;92.10
70074;DHT22;57445;51.058;3.698;2022-11-03T07:49:48;15.50;92.50
70074;DHT22;57445;51.058;3.698;2022-11-03T07:52:19;15.50;92.30
70074;DHT22;57445;51.058;3.698;2022-11-03T07:54:49;15.50;92.30
70074;DHT22;57445;51.058;3.698;2022-11-03T07:57:19;15.70;92.00
70074;DHT22;57445;51.058;3.698;2022-11-03T07:59:51;15.60;92.10
70074;DHT22;57445;51.058;3.698;2022-11-03T08:02:29;15.70;91.90
70074;DHT22;57445;51.058;3.698;2022-11-03T08:04:59;15.60;91.90
70074;DHT22;57445;51.058;3.698;2022-11-03T08:07:32;15.70;91.80
70074;DHT22;57445;51.058;3.698;2022-11-03T08:10:00;15.70;91.90
70074;DHT22;57445;51.058;3.698;2022-11-03T08:12:27;15.60;91.90
70074;DHT22;57445;51.058;3.698;2022-11-03T08:14:55;15.60;91.90
70074;DHT22;57445;51.058;3.698;2022-11-03T08:17:23;15.60;91.90
70074;DHT22;57445;51.058;3.698;2022-11-03T08:19:51;15.60;91.70
70074;DHT22;57445;51.058;3.698;2022-11-03T08:22:25;15.60;92.10
70074;DHT22;57445;51.058;3.698;2022-11-03T08:24:57;15.50;92.00
70074;DHT22;57445;51.058;3.698;2022-11-03T08:27:25;15.50;92.10
70074;DHT22;57445;51.058;3.698;2022-11-03T08:29:52;15.50;92.10
70074;DHT22;57445;51.058;3.698;2022-11-03T08:32:25;15.70;91.60
70074;DHT22;57445;51.058;3.698;2022-11-03T08:34:57;15.80;91.30
70074;DHT22;57445;51.058;3.698;2022-11-03T08:37:26;15.90;91.20
70074;DHT22;57445;51.058;3.698;2022-11-03T08:39:58;16.20;91.30
70074;DHT22;57445;51.058;3.698;2022-11-03T08:42:30;15.90;91.40
70074;DHT22;57445;51.058;3.698;2022-11-03T08:45:02;15.80;91.60
70074;DHT22;57445;51.058;3.698;2022-11-03T08:47:30;15.90;91.00
70074;DHT22;57445;51.058;3.698;2022-11-03T08:49:57;16.00;90.80
70074;DHT22;57445;51.058;3.698;2022-11-03T08:52:27;15.90;90.90
70074;DHT22;57445;51.058;3.698;2022-11-03T08:54:54;16.00;90.60
70074;DHT22;57445;51.058;3.698;2022-11-03T08:57:22;15.80;90.80
70074;DHT22;57445;51.058;3.698;2022-11-03T08:59:55;15.90;90.70
70074;DHT22;57445;51.058;3.698;2022-11-03T09:02:23;15.90;90.80
70074;DHT22;57445;51.058;3.698;2022-11-03T09:04:55;16.10;90.70
70074;DHT22;57445;51.058;3.698;2022-11-03T09:07:23;16.10;90.40
70074;DHT22;57445;51.058;3.698;2022-11-03T09:09:57;16.00;90.50
70074;DHT22;57445;51.058;3.698;2022-11-03T09:12:29;16.20;90.10
70074;DHT22;57445;51.058;3.698;2022-11-03T09:15:02;16.20;90.10
70074;DHT22;57445;51.058;3.698;2022-11-03T09:17:29;16.10;90.10
70074;DHT22;57445;51.058;3.698;2022-11-03T09:19:57;16.20;90.10
70074;DHT22;57445;51.058;3.698;2022-11-03T09:22:29;16.30;89.40
70074;DHT22;57445;51.058;3.698;2022-11-03T09:24:59;16.20;89.70
70074;DHT22;57445;51.058;3.698;2022-11-03T09:27:31;16.30;89.30
70074;DHT22;57445;51.058;3.698;2022-11-03T09:29:58;16.40;88.60
70074;DHT22;57445;51.058;3.698;2022-11-03T09:32:26;16.30;89.20
70074;DHT22;57445;51.058;3.698;2022-11-03T09:34:54;16.30;88.10
70074;DHT22;57445;51.058;3.698;2022-11-03T09:37:26;16.20;88.30
70074;DHT22;57445;51.058;3.698;2022-11-03T09:39:54;16.30;88.40
70074;DHT22;57445;51.058;3.698;2022-11-03T09:42:30;16.20;88.40
70074;DHT22;57445;51.058;3.698;2022-11-03T09:45:00;16.00;88.70
70074;DHT22;57445;51.058;3.698;2022-11-03T09:47:31;16.40;88.30
70074;DHT22;57445;51.058;3.698;2022-11-03T09:50:05;16.70;87.10
70074;DHT22;57445;51.058;3.698;2022-11-03T09:52:35;16.70;87.00
70074;DHT22;57445;51.058;3.698;2022-11-03T09:55:12;16.70;87.00
70074;DHT22;57445;51.058;3.698;2022-11-03T09:57:42;16.80;87.10
70074;DHT22;57445;51.058;3.698;2022-11-03T10:00:17;17.00;86.10
70074;DHT22;57445;51.058;3.698;2022-11-03T10:02:50;17.10;85.60
70074;DHT22;57445;51.058;3.698;2022-11-03T10:05:21;16.90;86.10
70074;DHT22;57445;51.058;3.698;2022-11-03T10:07:50;17.00;86.00
70074;DHT22;57445;51.058;3.698;2022-11-03T10:10:19;17.10;85.70
70074;DHT22;57445;51.058;3.698;2022-11-03T10:12:49;17.10;85.50
70074;DHT22;57445;51.058;3.698;2022-11-03T10:15:20;17.40;85.00
70074;DHT22;57445;51.058;3.698;2022-11-03T10:17:49;17.40;84.90
70074;DHT22;57445;51.058;3.698;2022-11-03T10:20:18;17.50;84.30
70074;DHT22;57445;51.058;3.698;2022-11-03T10:22:49;17.70;84.40
70074;DHT22;57445;51.058;3.698;2022-11-03T10:25:33;18.00;82.90
70074;DHT22;57445;51.058;3.698;2022-11-03T10:28:17;17.80;83.20
70074;DHT22;57445;51.058;3.698;2022-11-03T10:30:53;18.00;83.30
70074;DHT22;57445;51.058;3.698;2022-11-03T10:33:27;18.30;82.40
70074;DHT22;57445;51.058;3.698;2022-11-03T10:35:56;18.30;82.00
70074;DHT22;57445;51.058;3.698;2022-11-03T10:38:26;18.50;81.10
70074;DHT22;57445;51.058;3.698;2022-11-03T10:40:56;18.50;81.20
70074;DHT22;57445;51.058;3.698;2022-11-03T10:43:37;18.20;81.70
70074;DHT22;57445;51.058;3.698;2022-11-03T10:46:11;18.10;82.40
70074;DHT22;57445;51.058;3.698;2022-11-03T10:48:40;18.10;82.50
70074;DHT22;57445;51.058;3.698;2022-11-03T10:51:11;18.00;82.80
70074;DHT22;57445;51.058;3.698;2022-11-03T10:53:40;17.90;83.20
70074;DHT22;57445;51.058;3.698;2022-11-03T10:56:09;18.20;82.10
70074;DHT22;57445;51.058;3.698;2022-11-03T10:58:43;18.30;81.80
70074;DHT22;57445;51.058;3.698;2022-11-03T11:01:12;18.20;81.90
70074;DHT22;57445;51.058;3.698;2022-11-03T11:03:42;18.40;81.00
70074;DHT22;57445;51.058;3.698;2022-11-03T11:06:19;17.80;82.90
70074;DHT22;57445;51.058;3.698;2022-11-03T11:08:48;17.80;83.10
70074;DHT22;57445;51.058;3.698;2022-11-03T11:11:22;17.80;83.70
70074;DHT22;57445;51.058;3.698;2022-11-03T11:14:22;17.50;84.50
70074;DHT22;57445;51.058;3.698;2022-11-03T11:17:04;17.30;85.30
70074;DHT22;57445;51.058;3.698;2022-11-03T11:22:41;17.50;84.50
70074;DHT22;57445;51.058;3.698;2022-11-03T11:25:14;17.50;85.00
70074;DHT22;57445;51.058;3.698;2022-11-03T11:28:10;17.80;83.80
70074;DHT22;57445;51.058;3.698;2022-11-03T11:33:32;17.00;86.10
70074;DHT22;57445;51.058;3.698;2022-11-03T11:36:18;16.80;87.40
70074;DHT22;57445;51.058;3.698;2022-11-03T11:39:00;16.90;87.10
70074;DHT22;57445;51.058;3.698;2022-11-03T11:42:08;17.10;85.80
70074;DHT22;57445;51.058;3.698;2022-11-03T11:47:42;17.30;85.70
70074;DHT22;57445;51.058;3.698;2022-11-03T11:50:27;17.80;83.70
70074;DHT22;57445;51.058;3.698;2022-11-03T11:53:03;18.00;83.70
70074;DHT22;57445;51.058;3.698;2022-11-03T11:55:41;18.20;83.00
70074;DHT22;57445;51.058;3.698;2022-11-03T11:58:17;18.00;83.20
70074;DHT22;57445;51.058;3.698;2022-11-03T12:00:54;17.90;83.30
70074;DHT22;57445;51.058;3.698;2022-11-03T12:03:29;17.70;84.10
70074;DHT22;57445;51.058;3.698;2022-11-03T12:05:59;17.90;83.80
70074;DHT22;57445;51.058;3.698;2022-11-03T12:08:29;17.90;83.30
70074;DHT22;57445;51.058;3.698;2022-11-03T12:11:04;17.80;84.10
70074;DHT22;57445;51.058;3.698;2022-11-03T12:13:41;17.90;82.90
70074;DHT22;57445;51.058;3.698;2022-11-03T12:16:09;18.10;82.70
70074;DHT22;57445;51.058;3.698;2022-11-03T12:18:39;18.20;82.00
70074;DHT22;57445;51.058;3.698;2022-11-03T12:21:45;18.20;82.10
70074;DHT22;57445;51.058;3.698;2022-11-03T12:24:25;18.50;81.20
70074;DHT22;57445;51.058;3.698;2022-11-03T12:26:53;18.60;80.90
70074;DHT22;57445;51.058;3.698;2022-11-03T12:29:26;19.00;79.80
70074;DHT22;57445;51.058;3.698;2022-11-03T12:31:53;19.10;79.40
70074;DHT22;57445;51.058;3.698;2022-11-03T12:34:21;19.30;79.40
70074;DHT22;57445;51.058;3.698;2022-11-03T12:36:54;19.40;78.70
70074;DHT22;57445;51.058;3.698;2022-11-03T12:39:22;19.40;78.70
70074;DHT22;57445;51.058;3.698;2022-11-03T12:41:50;19.30;78.70
70074;DHT22;57445;51.058;3.698;2022-11-03T12:44:22;19.30;79.10
70074;DHT22;57445;51.058;3.698;2022-11-03T12:46:50;19.00;79.10
70074;DHT22;57445;51.058;3.698;2022-11-03T12:49:18;19.00;79.60
70074;DHT22;57445;51.058;3.698;2022-11-03T12:51:46;19.00;79.80
70074;DHT22;57445;51.058;3.698;2022-11-03T12:54:20;19.10;79.00
70074;DHT22;57445;51.058;3.698;2022-11-03T12:56:48;19.10;79.50
70074;DHT22;57445;51.058;3.698;2022-11-03T12:59:20;18.90;79.70
70074;DHT22;57445;51.058;3.698;2022-11-03T13:01:48;18.50;80.30
70074;DHT22;57445;51.058;3.698;2022-11-03T13:04:20;17.90;82.00
70074;DHT22;57445;51.058;3.698;2022-11-03T13:06:48;18.20;81.00
70074;DHT22;57445;51.058;3.698;2022-11-03T13:09:16;18.00;81.10
70074;DHT22;57445;51.058;3.698;2022-11-03T13:11:46;18.10;80.90
70074;DHT22;57445;51.058;3.698;2022-11-03T13:14:47;18.10;81.30
70074;DHT22;57445;51.058;3.698;2022-11-03T13:17:15;18.30;80.90
70074;DHT22;57445;51.058;3.698;2022-11-03T13:19:47;18.40;81.00
70074;DHT22;57445;51.058;3.698;2022-11-03T13:22:14;18.40;81.10
70074;DHT22;57445;51.058;3.698;2022-11-03T13:24:47;18.50;81.00
70074;DHT22;57445;51.058;3.698;2022-11-03T13:27:20;18.30;82.00
70074;DHT22;57445;51.058;3.698;2022-11-03T13:29:48;18.20;82.30
70074;DHT22;57445;51.058;3.698;2022-11-03T13:32:15;18.20;82.40
70074;DHT22;57445;51.058;3.698;2022-11-03T13:34:44;18.30;81.40
70074;DHT22;57445;51.058;3.698;2022-11-03T13:37:11;18.40;80.80
70074;DHT22;57445;51.058;3.698;2022-11-03T13:39:39;18.30;81.30
70074;DHT22;57445;51.058;3.698;2022-11-03T13:42:07;18.50;80.20
70074;DHT22;57445;51.058;3.698;2022-11-03T13:44:36;18.50;80.10
70074;DHT22;57445;51.058;3.698;2022-11-03T13:47:04;18.40;80.20
70074;DHT22;57445;51.058;3.698;2022-11-03T13:49:32;18.50;79.80
70074;DHT22;57445;51.058;3.698;2022-11-03T13:52:00;18.30;80.50
70074;DHT22;57445;51.058;3.698;2022-11-03T13:54:28;18.00;81.10
70074;DHT22;57445;51.058;3.698;2022-11-03T13:56:56;18.20;81.00
70074;DHT22;57445;51.058;3.698;2022-11-03T13:59:25;17.80;82.40
70074;DHT22;57445;51.058;3.698;2022-11-03T14:01:54;17.50;82.90
70074;DHT22;57445;51.058;3.698;2022-11-03T14:04:22;17.10;84.90
70074;DHT22;57445;51.058;3.698;2022-11-03T14:06:49;17.20;84.80
70074;DHT22;57445;51.058;3.698;2022-11-03T14:09:17;17.00;85.80
70074;DHT22;57445;51.058;3.698;2022-11-03T14:11:49;17.10;85.00
70074;DHT22;57445;51.058;3.698;2022-11-03T14:14:34;17.20;85.00
70074;DHT22;57445;51.058;3.698;2022-11-03T14:17:05;17.40;84.40
70074;DHT22;57445;51.058;3.698;2022-11-03T14:19:34;17.20;84.80
70074;DHT22;57445;51.058;3.698;2022-11-03T14:22:02;17.10;85.70
70074;DHT22;57445;51.058;3.698;2022-11-03T14:24:30;17.10;85.60
70074;DHT22;57445;51.058;3.698;2022-11-03T14:26:58;17.10;86.10
70074;DHT22;57445;51.058;3.698;2022-11-03T14:29:26;17.10;86.00
70074;DHT22;57445;51.058;3.698;2022-11-03T14:31:54;17.20;85.80
70074;DHT22;57445;51.058;3.698;2022-11-03T14:34:23;17.40;85.60
70074;DHT22;57445;51.058;3.698;2022-11-03T14:36:56;17.40;86.00
70074;DHT22;57445;51.058;3.698;2022-11-03T14:39:24;17.40;85.90
70074;DHT22;57445;51.058;3.698;2022-11-03T14:41:52;17.30;86.20
70074;DHT22;57445;51.058;3.698;2022-11-03T14:44:32;17.20;86.30
70074;DHT22;57445;51.058;3.698;2022-11-03T14:47:01;17.30;86.40
70074;DHT22;57445;51.058;3.698;2022-11-03T14:49:33;17.10;87.10
70074;DHT22;57445;51.058;3.698;2022-11-03T14:52:02;17.10;87.20
70074;DHT22;57445;51.058;3.698;2022-11-03T14:54:30;17.20;87.20
70074;DHT22;57445;51.058;3.698;2022-11-03T14:57:03;17.10;87.50
70074;DHT22;57445;51.058;3.698;2022-11-03T14:59:35;16.90;88.60
70074;DHT22;57445;51.058;3.698;2022-11-03T15:02:03;16.90;88.80
70074;DHT22;57445;51.058;3.698;2022-11-03T15:04:32;16.50;90.10
70074;DHT22;57445;51.058;3.698;2022-11-03T15:07:00;16.60;90.00
70074;DHT22;57445;51.058;3.698;2022-11-03T15:09:32;16.80;89.90
70074;DHT22;57445;51.058;3.698;2022-11-03T15:12:00;16.60;90.00
70074;DHT22;57445;51.058;3.698;2022-11-03T15:14:28;16.50;90.20
70074;DHT22;57445;51.058;3.698;2022-11-03T15:16:56;16.40;90.90
70074;DHT22;57445;51.058;3.698;2022-11-03T15:19:23;16.30;90.70
70074;DHT22;57445;51.058;3.698;2022-11-03T15:21:53;16.30;90.80
70074;DHT22;57445;51.058;3.698;2022-11-03T15:24:25;16.30;91.00
70074;DHT22;57445;51.058;3.698;2022-11-03T15:26:52;16.00;91.80
70074;DHT22;57445;51.058;3.698;2022-11-03T15:29:24;15.80;92.30
70074;DHT22;57445;51.058;3.698;2022-11-03T15:31:57;15.80;92.60
70074;DHT22;57445;51.058;3.698;2022-11-03T15:34:24;15.70;92.90
70074;DHT22;57445;51.058;3.698;2022-11-03T15:36:58;15.70;93.10
70074;DHT22;57445;51.058;3.698;2022-11-03T15:39:30;15.70;93.10
70074;DHT22;57445;51.058;3.698;2022-11-03T15:42:02;15.80;93.10
70074;DHT22;57445;51.058;3.698;2022-11-03T15:44:30;15.90;92.70
70074;DHT22;57445;51.058;3.698;2022-11-03T15:46:58;15.70;93.00
70074;DHT22;57445;51.058;3.698;2022-11-03T15:49:25;15.70;93.20
70074;DHT22;57445;51.058;3.698;2022-11-03T15:51:59;15.70;93.20
70074;DHT22;57445;51.058;3.698;2022-11-03T15:54:27;15.40;93.50
70074;DHT22;57445;51.058;3.698;2022-11-03T15:56:55;15.30;94.10
70074;DHT22;57445;51.058;3.698;2022-11-03T15:59:22;15.20;94.20
70074;DHT22;57445;51.058;3.698;2022-11-03T16:01:54;15.30;94.20
70074;DHT22;57445;51.058;3.698;2022-11-03T16:04:23;15.40;93.90
70074;DHT22;57445;51.058;3.698;2022-11-03T16:06:51;15.50;93.70
70074;DHT22;57445;51.058;3.698;2022-11-03T16:09:20;15.20;94.30
70074;DHT22;57445;51.058;3.698;2022-11-03T16:11:48;15.30;94.30